Time;durP1;ratioP1;P1;durP2;ratioP2;P2;SDS_P1;SDS_P2;PMS_P1;PMS_P2;Temp;Humidity;BMP_temperature;BMP_pressure;BME280_temperature;BME280_humidity;BME280_pressure;Samples;Min_cycle;Max_cycle;Signal;HPM_P1;HPM_P2
2023/11/18 00:01:54;;;;;;;14.23;8.27;;;1.20;99.90;;;;;;4971453;28;20513;-79
2023/11/18 00:04:20;;;;;;;13.30;7.68;;;1.20;99.90;;;;;;4971616;28;20039;-79
2023/11/18 00:06:45;;;;;;;16.33;8.73;;;1.20;99.90;;;;;;4971700;28;20054;-78
2023/11/18 00:09:13;;;;;;;14.32;7.82;;;1.20;99.90;;;;;;5037724;28;20441;-75
2023/11/18 00:11:39;;;;;;;17.73;9.20;;;1.20;99.90;;;;;;5038215;28;20018;-75
2023/11/18 00:14:05;;;;;;;16.20;9.15;;;1.10;99.90;;;;;;5037940;28;20118;-74
2023/11/18 00:16:31;;;;;;;14.05;8.32;;;1.10;99.90;;;;;;5038218;28;20476;-78
2023/11/18 00:18:58;;;;;;;15.18;8.88;;;1.20;99.90;;;;;;5037894;28;20046;-75
2023/11/18 00:21:24;;;;;;;14.43;8.15;;;1.20;99.90;;;;;;5037938;28;20030;-75
2023/11/18 00:23:50;;;;;;;16.27;9.23;;;1.10;99.90;;;;;;5037946;28;20039;-79
2023/11/18 00:26:16;;;;;;;14.23;8.88;;;1.20;99.90;;;;;;4971208;28;20022;-74
2023/11/18 00:28:42;;;;;;;14.00;7.95;;;1.20;99.90;;;;;;5019182;28;20088;-80
2023/11/18 00:31:07;;;;;;;10.90;8.10;;;1.20;99.90;;;;;;4971403;28;20026;-79
2023/11/18 00:33:33;;;;;;;13.07;7.65;;;1.20;99.90;;;;;;4971280;28;20063;-79
2023/11/18 00:36:00;;;;;;;10.55;6.93;;;1.20;99.90;;;;;;4971209;28;20034;-75
2023/11/18 00:38:26;;;;;;;10.55;6.18;;;1.20;99.90;;;;;;4971180;28;20544;-74
2023/11/18 00:40:52;;;;;;;12.60;7.15;;;1.20;99.90;;;;;;5037934;28;20031;-79
2023/11/18 00:43:17;;;;;;;12.15;7.05;;;1.20;99.90;;;;;;4971020;28;20373;-79
2023/11/18 00:45:43;;;;;;;10.68;5.90;;;1.20;99.90;;;;;;4971167;28;20031;-79
2023/11/18 00:48:09;;;;;;;11.60;6.47;;;1.20;99.90;;;;;;4971103;28;20388;-79
2023/11/18 00:50:35;;;;;;;11.65;6.28;;;1.20;99.90;;;;;;4971192;28;20011;-75
2023/11/18 00:53:01;;;;;;;9.95;6.80;;;1.20;99.90;;;;;;4971000;28;20031;-79
2023/11/18 00:55:27;;;;;;;13.57;6.55;;;1.20;99.90;;;;;;5037677;28;20106;-78
2023/11/18 00:57:52;;;;;;;11.40;6.50;;;1.20;99.90;;;;;;4970879;28;20030;-79
2023/11/18 01:00:21;;;;;;;10.40;6.03;;;1.20;99.90;;;;;;4971102;28;20027;-79
2023/11/18 01:02:49;;;;;;;7.97;6.75;;;1.20;99.90;;;;;;4970493;28;20050;-79
2023/11/18 01:05:15;;;;;;;9.10;6.32;;;1.20;99.90;;;;;;5037779;28;20118;-79
2023/11/18 01:07:41;;;;;;;7.70;5.53;;;1.30;99.90;;;;;;5037374;28;20035;-75
2023/11/18 01:10:08;;;;;;;10.65;6.28;;;1.20;99.90;;;;;;4970989;28;20026;-75
2023/11/18 01:12:34;;;;;;;10.00;6.05;;;1.30;99.90;;;;;;4970720;28;20370;-74
2023/11/18 01:15:00;;;;;;;12.88;7.80;;;1.30;99.90;;;;;;4970903;28;20488;-79
2023/11/18 01:17:25;;;;;;;10.13;6.53;;;1.20;99.90;;;;;;4970678;28;20025;-75
2023/11/18 01:19:51;;;;;;;14.93;7.68;;;1.20;99.90;;;;;;5037358;28;20034;-74
2023/11/18 01:22:18;;;;;;;11.65;6.78;;;1.20;99.90;;;;;;5037224;28;20414;-75
2023/11/18 01:24:44;;;;;;;11.45;7.45;;;1.20;99.90;;;;;;4970665;28;20039;-75
2023/11/18 01:27:10;;;;;;;12.20;7.55;;;1.20;99.90;;;;;;4985247;28;20473;-77
2023/11/18 01:29:37;;;;;;;11.65;7.22;;;1.20;99.90;;;;;;4970665;28;20019;-79
2023/11/18 01:32:08;;;;;;;12.00;7.78;;;1.30;99.90;;;;;;4970253;28;20110;-79
2023/11/18 01:34:36;;;;;;;11.52;7.13;;;1.20;99.90;;;;;;4973969;28;20023;-79
2023/11/18 01:37:02;;;;;;;13.80;7.45;;;1.20;99.90;;;;;;4973748;28;20057;-75
2023/11/18 01:39:28;;;;;;;13.52;7.80;;;1.30;99.90;;;;;;5041087;28;20069;-79
2023/11/18 01:41:55;;;;;;;13.02;7.85;;;1.30;99.90;;;;;;5040670;28;20050;-79
2023/11/18 01:44:23;;;;;;;13.30;8.18;;;1.30;99.90;;;;;;4973821;28;20039;-74
2023/11/18 01:46:50;;;;;;;12.77;7.53;;;1.30;99.90;;;;;;5040411;28;20049;-79
2023/11/18 01:49:17;;;;;;;12.80;7.60;;;1.20;99.90;;;;;;5040661;28;20087;-79
2023/11/18 01:51:45;;;;;;;12.18;7.60;;;1.20;99.90;;;;;;4973523;28;20160;-80
2023/11/18 01:54:15;;;;;;;12.43;7.38;;;1.20;99.90;;;;;;4973681;28;20023;-74
2023/11/18 01:56:45;;;;;;;8.77;6.15;;;1.20;99.90;;;;;;4973373;28;20027;-79
2023/11/18 01:59:17;;;;;;;9.45;5.25;;;1.20;99.90;;;;;;5040516;28;20034;-78
2023/11/18 02:01:51;;;;;;;8.82;5.18;;;1.20;99.90;;;;;;5027031;28;20031;-79
2023/11/18 02:04:19;;;;;;;5.75;4.55;;;1.20;99.90;;;;;;5040342;28;20125;-79
2023/11/18 02:06:47;;;;;;;6.25;4.72;;;1.20;99.90;;;;;;4973431;28;20066;-75
2023/11/18 02:09:17;;;;;;;6.82;4.45;;;1.20;99.90;;;;;;5038303;28;20015;-79
2023/11/18 02:11:57;;;;;;;6.38;4.80;;;1.20;99.90;;;;;;4972937;28;20027;-74
2023/11/18 02:14:26;;;;;;;10.00;5.05;;;1.10;99.90;;;;;;5040412;28;20400;-75
2023/11/18 02:16:55;;;;;;;8.20;5.03;;;1.20;99.90;;;;;;4973094;28;20023;-75
2023/11/18 02:19:24;;;;;;;9.35;5.68;;;1.20;99.90;;;;;;4973119;28;20053;-79
2023/11/18 02:21:52;;;;;;;6.72;4.90;;;1.20;99.90;;;;;;4973311;28;20543;-78
2023/11/18 02:24:36;;;;;;;7.88;5.05;;;1.20;99.90;;;;;;5039812;28;20039;-79
2023/11/18 02:27:05;;;;;;;7.60;5.13;;;1.20;99.90;;;;;;4963700;28;20019;-79
2023/11/18 02:29:41;;;;;;;10.38;5.88;;;1.20;99.90;;;;;;4972938;28;20023;-75
2023/11/18 02:32:31;;;;;;;7.50;5.00;;;1.20;99.90;;;;;;5040058;28;20030;-75
2023/11/18 02:35:15;;;;;;;7.55;5.13;;;1.30;99.90;;;;;;5040038;28;20034;-79
2023/11/18 02:37:44;;;;;;;11.13;6.95;;;1.30;99.90;;;;;;4972867;28;20029;-79
2023/11/18 02:40:16;;;;;;;11.02;7.30;;;1.30;99.90;;;;;;4972924;28;20023;-75
2023/11/18 02:42:43;;;;;;;12.85;7.28;;;1.30;99.90;;;;;;5039566;28;20031;-75
2023/11/18 02:45:16;;;;;;;10.75;7.05;;;1.30;99.90;;;;;;4971566;28;20041;-79
2023/11/18 02:47:45;;;;;;;13.82;7.82;;;1.30;99.90;;;;;;5040025;28;20043;-79
2023/11/18 02:50:11;;;;;;;11.77;7.45;;;1.30;99.90;;;;;;4972790;28;20023;-75
2023/11/18 02:52:37;;;;;;;13.43;8.18;;;1.30;99.90;;;;;;4972713;28;20054;-80
2023/11/18 02:55:07;;;;;;;10.15;7.30;;;1.30;99.90;;;;;;5039476;28;20110;-77
2023/11/18 02:57:34;;;;;;;11.40;7.32;;;1.30;99.90;;;;;;5038738;28;20504;-75
2023/11/18 03:00:00;;;;;;;11.73;7.82;;;1.30;99.90;;;;;;4972741;28;20023;-74
2023/11/18 03:02:29;;;;;;;11.88;7.07;;;1.30;99.90;;;;;;4972283;28;20043;-75
2023/11/18 03:04:55;;;;;;;12.32;8.52;;;1.30;99.90;;;;;;5039236;28;20065;-75
2023/11/18 03:07:21;;;;;;;11.00;7.10;;;1.30;99.90;;;;;;4972357;28;20058;-75
2023/11/18 03:09:46;;;;;;;13.40;7.55;;;1.30;99.90;;;;;;5039477;28;20473;-79
2023/11/18 03:12:13;;;;;;;13.05;7.47;;;1.40;99.90;;;;;;5039078;28;20031;-79
2023/11/18 03:14:38;;;;;;;9.68;6.45;;;1.40;99.90;;;;;;4972614;28;20031;-79
2023/11/18 03:17:06;;;;;;;10.50;7.05;;;1.30;99.90;;;;;;4971899;28;20027;-75
2023/11/18 03:19:35;;;;;;;11.18;6.15;;;1.30;99.90;;;;;;5039316;28;20133;-74
2023/11/18 03:22:01;;;;;;;7.68;5.68;;;1.40;99.90;;;;;;5039004;28;20019;-74
2023/11/18 03:24:28;;;;;;;8.27;5.90;;;1.30;99.90;;;;;;5039083;28;20038;-79
2023/11/18 03:26:57;;;;;;;9.15;5.65;;;1.40;99.90;;;;;;5038778;28;20031;-79
2023/11/18 03:29:23;;;;;;;10.55;6.15;;;1.40;99.90;;;;;;4972344;28;20094;-79
2023/11/18 03:31:49;;;;;;;10.05;5.93;;;1.40;99.90;;;;;;5038667;28;20121;-75
2023/11/18 03:34:22;;;;;;;9.43;6.18;;;1.40;99.90;;;;;;5038902;28;20023;-74
2023/11/18 03:36:48;;;;;;;;;;;1.40;99.90;;;;;;5038969;28;20400;-78
2023/11/18 03:39:14;;;;;;;10.70;6.13;;;1.40;99.90;;;;;;4972310;28;19906;-79
2023/11/18 03:41:44;;;;;;;9.38;6.05;;;1.40;99.90;;;;;;4971847;28;20035;-79
2023/11/18 03:44:11;;;;;;;8.93;5.53;;;1.50;99.90;;;;;;5038775;28;20062;-78
2023/11/18 03:46:37;;;;;;;6.93;4.72;;;1.40;99.90;;;;;;5038223;28;20026;-79
2023/11/18 03:49:03;;;;;;;9.63;5.55;;;1.40;99.90;;;;;;5038187;28;20473;-80
2023/11/18 03:51:29;;;;;;;6.50;4.68;;;1.40;99.90;;;;;;4971673;28;20030;-80
2023/11/18 03:53:55;;;;;;;6.75;4.70;;;1.30;99.90;;;;;;4971834;28;20459;-79
2023/11/18 03:56:21;;;;;;;5.75;4.13;;;1.30;99.90;;;;;;5038320;28;20114;-79
2023/11/18 03:58:49;;;;;;;4.80;4.00;;;1.30;99.90;;;;;;4971904;28;20027;-79
2023/11/18 04:01:22;;;;;;;5.45;3.83;;;1.20;99.90;;;;;;5038403;28;20030;-74
2023/11/18 04:03:49;;;;;;;5.57;4.40;;;1.20;99.90;;;;;;5051551;28;20057;-74
2023/11/18 04:06:17;;;;;;;4.80;3.60;;;1.20;99.90;;;;;;5053010;28;20016;-74
2023/11/18 04:08:44;;;;;;;6.00;4.05;;;1.20;99.90;;;;;;5053294;28;20017;-75
2023/11/18 04:11:10;;;;;;;5.40;4.05;;;1.20;99.90;;;;;;5051496;28;20025;-74
2023/11/18 04:13:35;;;;;;;6.00;3.95;;;1.20;99.90;;;;;;5053267;28;20383;-74
2023/11/18 04:16:01;;;;;;;5.82;4.03;;;1.10;99.90;;;;;;5051572;28;20028;-79
2023/11/18 04:18:26;;;;;;;6.25;3.88;;;1.20;99.90;;;;;;5052995;28;20028;-75
2023/11/18 04:20:52;;;;;;;5.65;4.13;;;1.20;99.90;;;;;;5052787;28;20021;-74
2023/11/18 04:23:18;;;;;;;5.40;3.85;;;1.20;99.90;;;;;;5051662;28;20120;-78
2023/11/18 04:25:44;;;;;;;8.13;4.60;;;1.20;99.90;;;;;;5052520;28;20027;-79
2023/11/18 04:28:10;;;;;;;8.40;4.47;;;1.20;99.90;;;;;;5052923;28;20025;-75
2023/11/18 04:30:36;;;;;;;8.63;5.07;;;1.20;99.90;;;;;;5051502;28;20067;-74
2023/11/18 04:33:01;;;;;;;7.30;4.70;;;1.20;99.90;;;;;;5051633;28;20417;-75
2023/11/18 04:35:27;;;;;;;9.05;5.20;;;1.20;99.90;;;;;;5052507;28;20021;-74
2023/11/18 04:37:53;;;;;;;8.55;4.93;;;1.20;99.90;;;;;;5052639;28;20025;-79
2023/11/18 04:40:18;;;;;;;6.70;5.63;;;1.20;99.90;;;;;;5051345;28;20139;-79
2023/11/18 04:42:44;;;;;;;8.65;5.45;;;1.20;99.90;;;;;;5051512;28;20048;-79
2023/11/18 04:45:10;;;;;;;6.95;4.97;;;1.20;99.90;;;;;;5051201;28;20028;-78
2023/11/18 04:47:37;;;;;;;9.98;6.00;;;1.20;99.90;;;;;;5052612;28;20021;-79
2023/11/18 04:50:04;;;;;;;9.40;5.63;;;1.30;99.90;;;;;;5051377;28;20154;-79
2023/11/18 04:52:32;;;;;;;9.85;5.13;;;1.20;99.90;;;;;;5052626;28;20083;-79
2023/11/18 04:54:59;;;;;;;8.70;4.93;;;1.30;99.90;;;;;;5052287;28;20032;-74
2023/11/18 04:57:25;;;;;;;12.48;5.93;;;1.30;99.90;;;;;;5051237;28;20028;-75
2023/11/18 04:59:51;;;;;;;14.18;7.20;;;1.30;99.90;;;;;;5052383;28;20112;-75
2023/11/18 05:02:16;;;;;;;13.35;6.10;;;1.30;99.90;;;;;;5050987;28;20040;-79
2023/11/18 05:04:42;;;;;;;8.07;5.03;;;1.30;99.90;;;;;;5050922;28;20216;-75
2023/11/18 05:07:08;;;;;;;7.07;5.00;;;1.30;99.90;;;;;;5052413;28;20037;-75
2023/11/18 05:09:34;;;;;;;6.95;4.65;;;1.30;99.90;;;;;;5056104;28;20025;-79
2023/11/18 05:12:00;;;;;;;7.28;5.05;;;1.30;99.90;;;;;;5056505;28;20021;-75
2023/11/18 05:14:26;;;;;;;6.43;4.60;;;1.30;99.90;;;;;;5051433;28;20383;-79
2023/11/18 05:16:52;;;;;;;7.10;5.20;;;1.20;99.90;;;;;;5055034;28;20017;-79
2023/11/18 05:19:18;;;;;;;6.82;5.13;;;1.20;99.90;;;;;;5056159;28;20074;-79
2023/11/18 05:21:44;;;;;;;6.70;4.45;;;1.10;99.90;;;;;;5056293;28;20658;-74
2023/11/18 05:24:09;;;;;;;5.60;3.75;;;1.00;99.90;;;;;;5056125;28;20032;-78
2023/11/18 05:26:35;;;;;;;4.93;3.72;;;1.00;99.90;;;;;;5056115;28;20017;-74
2023/11/18 05:29:01;;;;;;;6.88;4.40;;;0.90;99.90;;;;;;5054836;28;20025;-79
2023/11/18 05:31:28;;;;;;;8.43;6.55;;;0.90;99.90;;;;;;5056021;28;20096;-79
2023/11/18 05:33:55;;;;;;;6.40;5.38;;;0.80;99.90;;;;;;5056065;28;20428;-79
2023/11/18 05:36:27;;;;;;;4.10;3.72;;;0.80;99.90;;;;;;5051280;28;20387;-74
2023/11/18 05:38:53;;;;;;;3.90;2.80;;;0.80;99.90;;;;;;5047655;28;20025;-75
2023/11/18 05:41:27;;;;;;;2.83;2.15;;;0.80;99.90;;;;;;5055864;28;20025;-79
2023/11/18 05:43:59;;;;;;;3.15;2.33;;;0.70;99.90;;;;;;5055850;28;20498;-74
2023/11/18 05:46:29;;;;;;;3.10;2.90;;;0.60;99.90;;;;;;5054589;28;20039;-77
2023/11/18 05:48:55;;;;;;;2.80;2.00;;;0.60;99.90;;;;;;5055788;28;20078;-79
2023/11/18 05:51:26;;;;;;;3.35;1.98;;;0.50;99.90;;;;;;5055594;28;20017;-79
2023/11/18 05:53:52;;;;;;;3.95;2.28;;;0.40;99.90;;;;;;5055672;28;20100;-74
2023/11/18 05:56:19;;;;;;;2.63;1.95;;;0.40;99.90;;;;;;5054159;28;20048;-74
2023/11/18 05:58:45;;;;;;;4.45;2.83;;;0.30;99.90;;;;;;5055643;28;20096;-74
2023/11/18 06:01:12;;;;;;;3.58;2.70;;;0.30;99.90;;;;;;5054237;28;20027;-79
2023/11/18 06:03:38;;;;;;;6.20;3.65;;;0.30;99.90;;;;;;5054049;28;20502;-79
2023/11/18 06:06:09;;;;;;;6.40;3.75;;;0.30;99.90;;;;;;5054073;28;20021;-74
2023/11/18 06:08:36;;;;;;;6.43;4.25;;;0.40;99.90;;;;;;5053710;28;20111;-78
2023/11/18 06:11:12;;;;;;;6.70;3.90;;;0.40;99.90;;;;;;5050902;28;20123;-74
2023/11/18 06:13:42;;;;;;;5.97;3.35;;;0.40;99.90;;;;;;5054025;28;20017;-79
2023/11/18 06:16:09;;;;;;;6.97;3.58;;;0.40;99.90;;;;;;5055109;28;20048;-74
2023/11/18 06:18:36;;;;;;;8.23;4.28;;;0.50;99.90;;;;;;5053450;28;20018;-79
2023/11/18 06:21:01;;;;;;;5.55;3.33;;;0.50;99.90;;;;;;5055069;28;20021;-74
2023/11/18 06:23:27;;;;;;;6.78;4.05;;;0.50;99.90;;;;;;5053699;28;20035;-79
2023/11/18 06:25:52;;;;;;;7.78;4.90;;;0.40;99.90;;;;;;5055094;28;20036;-75
2023/11/18 06:28:18;;;;;;;8.52;5.53;;;0.50;99.90;;;;;;5054418;28;20490;-74
2023/11/18 06:30:44;;;;;;;8.38;5.15;;;0.40;99.90;;;;;;5053643;28;20032;-78
2023/11/18 06:33:09;;;;;;;9.52;5.25;;;0.40;99.90;;;;;;5055103;28;20396;-79
2023/11/18 06:35:37;;;;;;;12.13;5.55;;;0.40;99.90;;;;;;5054796;28;20021;-79
2023/11/18 06:38:03;;;;;;;14.45;6.32;;;0.50;99.90;;;;;;5050381;28;20021;-78
2023/11/18 06:40:28;;;;;;;10.70;7.25;;;0.50;99.90;;;;;;5053886;28;20154;-78
2023/11/18 06:43:01;;;;;;;20.20;10.52;;;0.50;99.90;;;;;;5054774;28;20096;-79
2023/11/18 06:45:27;;;;;;;21.05;9.82;;;0.60;99.90;;;;;;5035038;28;20014;-78
2023/11/18 06:47:53;;;;;;;13.10;7.65;;;0.60;99.90;;;;;;5048046;28;20108;-79
2023/11/18 06:50:24;;;;;;;12.82;6.50;;;0.50;99.90;;;;;;5041572;28;20013;-74
2023/11/18 06:52:51;;;;;;;13.02;7.57;;;0.50;99.90;;;;;;5053279;28;20384;-75
2023/11/18 06:55:16;;;;;;;16.08;7.95;;;0.60;99.90;;;;;;5053652;28;20021;-79
2023/11/18 06:57:44;;;;;;;14.60;8.50;;;0.50;99.90;;;;;;5054085;28;20025;-79
2023/11/18 07:00:13;;;;;;;17.65;9.45;;;0.50;99.90;;;;;;5053038;28;20036;-76
2023/11/18 07:02:39;;;;;;;14.70;9.48;;;0.50;99.90;;;;;;5014157;28;20057;-79
2023/11/18 07:05:05;;;;;;;16.45;9.73;;;0.50;99.90;;;;;;4972451;28;20027;-78
2023/11/18 07:07:32;;;;;;;16.92;9.10;;;0.50;99.90;;;;;;5037597;28;20111;-74
2023/11/18 07:09:57;;;;;;;17.88;8.90;;;0.50;99.90;;;;;;5039074;28;20122;-74
2023/11/18 07:12:23;;;;;;;12.38;7.97;;;0.50;99.90;;;;;;5031208;28;20109;-79
2023/11/18 07:14:49;;;;;;;18.52;9.75;;;0.60;99.90;;;;;;4972180;28;20027;-79
2023/11/18 07:17:14;;;;;;;16.65;10.48;;;0.50;99.90;;;;;;5038547;28;20529;-80
2023/11/18 07:19:40;;;;;;;19.02;10.60;;;0.60;99.90;;;;;;4972386;28;20019;-74
2023/11/18 07:22:06;;;;;;;19.55;10.40;;;0.60;99.90;;;;;;4972248;28;20477;-74
2023/11/18 07:24:32;;;;;;;18.58;10.82;;;0.50;99.90;;;;;;4972337;28;20027;-74
2023/11/18 07:26:59;;;;;;;19.50;10.77;;;0.60;99.90;;;;;;5038964;28;20022;-79
2023/11/18 07:29:26;;;;;;;21.98;10.32;;;0.60;99.90;;;;;;5038964;28;20385;-74
2023/11/18 07:31:54;;;;;;;20.15;10.90;;;0.70;99.90;;;;;;4970616;28;20026;-74
2023/11/18 07:34:21;;;;;;;19.63;12.52;;;0.70;99.90;;;;;;4971571;28;20015;-75
2023/11/18 07:36:48;;;;;;;22.48;12.50;;;0.60;99.90;;;;;;5032643;28;20133;-74
2023/11/18 07:39:24;;;;;;;71.57;34.78;;;0.70;99.90;;;;;;5038634;28;20485;-75
2023/11/18 07:41:50;;;;;;;31.85;15.77;;;0.70;99.90;;;;;;4971839;28;20027;-75
2023/11/18 07:44:16;;;;;;;19.02;10.57;;;0.80;99.90;;;;;;5038134;28;20081;-75
2023/11/18 07:46:42;;;;;;;19.33;10.68;;;0.80;99.90;;;;;;5038471;28;20019;-74
2023/11/18 07:49:09;;;;;;;23.15;12.68;;;0.80;99.90;;;;;;4971796;28;20411;-74
2023/11/18 07:51:34;;;;;;;22.60;11.80;;;0.80;99.90;;;;;;5034426;28;20392;-75
2023/11/18 07:54:00;;;;;;;25.33;12.90;;;0.80;99.90;;;;;;5038511;28;20023;-74
2023/11/18 07:56:27;;;;;;;25.38;13.48;;;0.80;99.90;;;;;;4975598;28;20377;-75
2023/11/18 07:58:54;;;;;;;26.20;12.52;;;0.90;99.90;;;;;;4985008;28;20106;-75
2023/11/18 08:01:21;;;;;;;24.77;11.90;;;0.90;99.90;;;;;;4970905;28;20575;-75
2023/11/18 08:03:47;;;;;;;25.30;12.55;;;0.90;99.90;;;;;;4971354;28;20488;-74
2023/11/18 08:06:13;;;;;;;18.20;10.52;;;0.80;99.90;;;;;;5047403;28;20023;-75
2023/11/18 08:08:39;;;;;;;19.63;10.63;;;0.80;99.90;;;;;;5039292;28;20023;-75
2023/11/18 08:11:05;;;;;;;25.05;13.02;;;0.80;99.90;;;;;;5037882;28;20049;-75
2023/11/18 08:13:31;;;;;;;23.00;11.13;;;0.80;99.90;;;;;;5041238;28;20113;-75
2023/11/18 08:15:59;;;;;;;19.40;10.57;;;0.70;99.90;;;;;;5044694;28;20169;-75
2023/11/18 08:18:27;;;;;;;17.10;8.18;;;0.70;99.90;;;;;;4971326;28;20030;-75
2023/11/18 08:20:53;;;;;;;14.30;8.07;;;0.70;99.90;;;;;;4970819;28;20496;-75
2023/11/18 08:23:19;;;;;;;13.80;8.05;;;0.70;99.90;;;;;;5036780;28;20041;-75
2023/11/18 08:25:46;;;;;;;12.07;8.45;;;0.70;99.90;;;;;;4971041;28;20038;-75
2023/11/18 08:28:13;;;;;;;13.55;7.18;;;0.80;99.90;;;;;;5037637;28;20022;-74
2023/11/18 08:30:39;;;;;;;10.95;7.43;;;0.80;99.90;;;;;;5037296;28;20066;-75
2023/11/18 08:33:08;;;;;;;13.13;8.38;;;0.80;99.90;;;;;;5034998;28;20484;-75
2023/11/18 08:35:37;;;;;;;9.50;5.97;;;0.90;99.90;;;;;;4970672;28;20026;-75
2023/11/18 08:38:04;;;;;;;11.23;6.78;;;0.80;99.90;;;;;;5035412;28;20035;-74
2023/11/18 08:40:30;;;;;;;13.82;8.75;;;0.80;99.90;;;;;;5029018;28;20023;-74
2023/11/18 08:42:56;;;;;;;11.57;8.82;;;0.80;99.90;;;;;;4969737;28;20027;-79
2023/11/18 08:45:32;;;;;;;11.38;7.30;;;0.80;99.90;;;;;;4970916;28;20030;-74
2023/11/18 08:48:04;;;;;;;9.88;6.30;;;0.80;99.90;;;;;;4970622;28;20030;-74
2023/11/18 08:50:31;;;;;;;10.73;7.28;;;0.70;99.90;;;;;;4970288;28;20019;-75
2023/11/18 08:52:59;;;;;;;10.02;7.35;;;0.70;99.90;;;;;;4970474;28;20023;-74
2023/11/18 08:55:39;;;;;;;15.95;8.98;;;0.70;99.90;;;;;;5037333;28;20023;-74
2023/11/18 08:58:27;;;;;;;18.65;10.98;;;0.50;99.90;;;;;;5037367;28;20595;-74
2023/11/18 09:01:13;;;;;;;14.63;9.60;;;0.50;99.90;;;;;;5033425;28;20069;-74
2023/11/18 09:03:43;;;;;;;17.17;11.65;;;0.40;99.90;;;;;;4970631;28;20536;-74
2023/11/18 09:06:25;;;;;;;19.27;12.20;;;0.30;99.90;;;;;;4970285;28;20023;-74
2023/11/18 09:08:55;;;;;;;24.70;13.90;;;0.30;99.90;;;;;;5037311;28;20049;-75
2023/11/18 09:11:29;;;;;;;20.55;12.10;;;0.30;99.90;;;;;;5032534;28;20098;-74
2023/11/18 09:14:00;;;;;;;22.40;13.05;;;0.20;99.90;;;;;;4970221;28;20165;-74
2023/11/18 09:16:29;;;;;;;23.17;13.32;;;0.20;99.90;;;;;;4970308;28;20061;-75
2023/11/18 09:18:58;;;;;;;25.20;13.88;;;0.20;99.90;;;;;;4970105;28;20019;-74
2023/11/18 09:21:25;;;;;;;23.80;13.65;;;0.10;99.90;;;;;;5036857;28;20038;-75
2023/11/18 09:23:51;;;;;;;19.30;11.23;;;0.10;99.90;;;;;;5036621;28;20061;-74
2023/11/18 09:26:17;;;;;;;20.85;12.38;;;0.10;99.90;;;;;;5035423;28;20030;-74
2023/11/18 09:28:46;;;;;;;21.92;12.52;;;0.10;99.90;;;;;;4970021;28;20056;-74
2023/11/18 09:31:12;;;;;;;24.38;13.60;;;0.10;99.90;;;;;;4969909;28;20413;-74
2023/11/18 09:33:44;;;;;;;16.80;10.38;;;0.20;99.90;;;;;;5036943;28;20102;-74
2023/11/18 09:36:12;;;;;;;17.55;10.35;;;0.10;99.90;;;;;;4970418;28;20046;-74
2023/11/18 09:38:41;;;;;;;18.55;11.25;;;0.10;99.90;;;;;;5036608;28;20023;-74
2023/11/18 09:41:13;;;;;;;19.83;10.32;;;0.20;99.90;;;;;;4969629;28;20515;-74
2023/11/18 09:43:47;;;;;;;15.82;9.75;;;0.20;99.90;;;;;;4970081;28;20141;-75
2023/11/18 09:46:32;;;;;;;19.10;10.70;;;0.20;99.90;;;;;;4970515;28;20029;-75
2023/11/18 09:49:14;;;;;;;25.05;13.18;;;0.20;99.90;;;;;;5037467;28;20027;-75
2023/11/18 09:51:44;;;;;;;33.85;19.10;;;0.20;99.90;;;;;;5034448;28;20033;-74
2023/11/18 09:54:55;;;;;;;24.55;14.27;;;0.30;99.90;;;;;;4971235;28;20039;-74
2023/11/18 09:57:39;;;;;;;20.77;11.57;;;0.30;99.90;;;;;;4973234;28;20156;-74
2023/11/18 10:02:51;;;;;;;17.33;10.20;;;0.20;99.90;;;;;;4971440;28;20152;-74
2023/11/18 10:05:22;;;;;;;15.77;10.43;;;0.20;99.90;;;;;;5040439;28;20038;-78
2023/11/18 10:07:49;;;;;;;17.55;10.13;;;0.10;99.90;;;;;;4973159;28;20388;-78
2023/11/18 10:10:15;;;;;;;20.13;12.80;;;0.10;99.90;;;;;;5040729;28;20076;-75
2023/11/18 10:12:45;;;;;;;15.75;10.10;;;0.20;99.90;;;;;;5039845;28;20027;-74
2023/11/18 10:15:17;;;;;;;18.63;11.52;;;0.20;99.90;;;;;;5039970;28;20022;-74
2023/11/18 10:17:59;;;;;;;20.00;10.98;;;0.30;99.90;;;;;;5040036;28;20030;-74
2023/11/18 10:20:45;;;;;;;18.10;10.43;;;0.40;99.90;;;;;;4973084;28;20058;-73
2023/11/18 10:23:19;;;;;;;14.48;8.25;;;0.50;99.90;;;;;;5039875;28;20057;-74
2023/11/18 10:25:48;;;;;;;17.52;10.77;;;0.40;99.90;;;;;;5036813;28;20061;-74
2023/11/18 10:28:27;;;;;;;23.35;12.43;;;0.50;99.90;;;;;;5032712;28;20027;-74
2023/11/18 10:31:03;;;;;;;24.23;13.82;;;0.40;99.90;;;;;;5030114;28;20058;-74
2023/11/18 10:33:35;;;;;;;21.52;12.65;;;0.40;99.90;;;;;;5034682;28;20026;-74
2023/11/18 10:36:04;;;;;;;17.13;9.50;;;0.40;99.90;;;;;;4972690;28;20102;-74
2023/11/18 10:38:47;;;;;;;17.70;9.90;;;0.30;99.90;;;;;;4972213;28;20110;-74
2023/11/18 10:41:13;;;;;;;14.63;8.30;;;0.30;99.90;;;;;;4972976;28;20031;-74
2023/11/18 10:43:41;;;;;;;18.13;9.57;;;0.30;99.90;;;;;;4972095;28;20043;-74
2023/11/18 10:46:14;;;;;;;19.27;11.50;;;0.30;99.90;;;;;;5033432;28;20023;-74
2023/11/18 10:48:41;;;;;;;16.58;10.18;;;0.30;99.90;;;;;;4972962;28;20031;-74
2023/11/18 10:51:12;;;;;;;15.07;9.73;;;0.30;99.90;;;;;;5039069;28;20447;-74
2023/11/18 10:53:58;;;;;;;18.67;10.10;;;0.30;99.90;;;;;;4972738;28;20030;-74
2023/11/18 10:56:28;;;;;;;13.77;8.40;;;0.30;99.90;;;;;;4970451;28;20027;-74
2023/11/18 10:59:00;;;;;;;14.55;8.93;;;0.30;99.90;;;;;;5038790;28;20322;-74
2023/11/18 11:01:29;;;;;;;15.00;9.40;;;0.30;99.90;;;;;;4972623;28;20023;-75
2023/11/18 11:03:58;;;;;;;14.75;9.27;;;0.30;99.90;;;;;;4972477;28;20477;-74
2023/11/18 11:06:25;;;;;;;17.85;11.27;;;0.30;99.90;;;;;;5038216;28;20015;-75
2023/11/18 11:08:52;;;;;;;16.45;9.95;;;0.40;99.90;;;;;;5039322;28;20122;-74
2023/11/18 11:11:23;;;;;;;18.58;11.30;;;0.40;99.90;;;;;;5035552;28;20507;-74
2023/11/18 11:14:03;;;;;;;14.13;9.20;;;0.40;99.90;;;;;;4971612;28;20088;-74
2023/11/18 11:16:37;;;;;;;11.75;8.50;;;0.50;99.90;;;;;;4966602;28;20039;-75
2023/11/18 11:19:08;;;;;;;14.25;9.15;;;0.40;99.90;;;;;;4972113;28;20019;-74
2023/11/18 11:21:47;;;;;;;12.95;8.27;;;0.40;99.90;;;;;;4972296;28;20110;-74
2023/11/18 11:24:33;;;;;;;10.13;7.78;;;0.40;99.90;;;;;;4971566;28;20039;-74
2023/11/18 11:27:35;;;;;;;15.38;8.15;;;0.40;99.90;;;;;;4960908;28;20040;-74
2023/11/18 11:30:15;;;;;;;12.23;9.45;;;0.40;99.90;;;;;;4971993;28;20106;-74
2023/11/18 11:33:00;;;;;;;12.13;8.15;;;0.40;99.90;;;;;;5025256;28;20172;-74
2023/11/18 11:35:37;;;;;;;15.65;8.88;;;0.30;99.90;;;;;;5037874;28;20027;-74
2023/11/18 11:38:09;;;;;;;11.77;7.95;;;0.40;99.90;;;;;;5038764;28;20121;-74
2023/11/18 11:40:37;;;;;;;11.13;7.88;;;0.30;99.90;;;;;;4972060;28;20480;-74
2023/11/18 11:43:09;;;;;;;13.10;9.50;;;0.20;99.90;;;;;;5038404;28;20066;-74
2023/11/18 11:45:36;;;;;;;13.48;8.80;;;0.30;99.90;;;;;;5038721;28;20030;-75
2023/11/18 11:48:14;;;;;;;14.18;8.60;;;0.40;99.90;;;;;;5037758;28;20033;-74
2023/11/18 11:51:01;;;;;;;9.20;7.57;;;0.40;99.90;;;;;;5038413;28;20037;-78
2023/11/18 11:53:38;;;;;;;11.25;8.18;;;0.40;99.90;;;;;;4971815;28;20022;-79
2023/11/18 11:56:06;;;;;;;11.32;7.75;;;0.40;99.90;;;;;;4990674;28;20392;-75
2023/11/18 11:58:36;;;;;;;12.95;8.85;;;0.50;99.90;;;;;;4971553;28;20102;-74
2023/11/18 12:01:25;;;;;;;11.00;7.82;;;0.40;99.90;;;;;;5037682;28;20019;-74
2023/11/18 12:03:57;;;;;;;12.63;7.78;;;0.30;99.90;;;;;;5026738;28;20097;-74
2023/11/18 12:06:24;;;;;;;12.50;8.35;;;0.30;99.90;;;;;;4970823;28;20030;-74
2023/11/18 12:08:53;;;;;;;11.32;7.05;;;0.20;99.90;;;;;;4971596;28;20051;-74
2023/11/18 12:11:20;;;;;;;11.60;8.32;;;0.20;99.90;;;;;;5037690;28;20031;-74
2023/11/18 12:17:13;;;;;;;14.50;9.73;;;0.30;99.90;;;;;;4963242;28;20051;-73
2023/11/18 12:19:49;;;;;;;12.63;8.73;;;0.30;99.90;;;;;;5026450;28;20087;-73
2023/11/18 12:22:19;;;;;;;12.00;9.23;;;0.30;99.90;;;;;;4971118;28;20108;-73
2023/11/18 12:25:06;;;;;;;11.98;9.55;;;0.20;99.90;;;;;;5038070;28;20062;-74
2023/11/18 12:27:41;;;;;;;12.65;8.63;;;0.30;99.90;;;;;;4971037;28;20051;-73
2023/11/18 12:30:15;;;;;;;16.33;10.20;;;0.20;99.90;;;;;;4971398;28;20050;-73
2023/11/18 12:33:00;;;;;;;13.40;9.15;;;0.20;99.90;;;;;;5033048;28;20061;-73
2023/11/18 12:35:30;;;;;;;14.30;9.82;;;0.20;99.90;;;;;;5037460;28;20113;-73
2023/11/18 12:38:45;;;;;;;17.17;9.93;;;0.10;99.90;;;;;;4971381;28;20019;-74
2023/11/18 12:41:27;;;;;;;14.80;9.13;;;0.20;99.90;;;;;;4963515;28;20050;-73
2023/11/18 12:44:20;;;;;;;21.10;10.73;;;0.10;99.90;;;;;;4995694;28;20062;-74
2023/11/18 12:46:53;;;;;;;16.05;9.75;;;0.20;99.90;;;;;;4967272;28;20031;-74
2023/11/18 12:49:23;;;;;;;;;;;0.20;99.90;;;;;;4971156;28;20023;-74
2023/11/18 12:51:50;;;;;;;11.25;8.52;;;0.20;99.90;;;;;;5037293;28;20276;-74
2023/11/18 12:54:18;;;;;;;14.80;9.90;;;0.20;99.90;;;;;;4970775;28;20011;-73
2023/11/18 12:56:48;;;;;;;13.30;9.10;;;0.10;99.90;;;;;;4969898;28;20035;-73
2023/11/18 12:59:20;;;;;;;12.60;9.45;;;0.10;99.90;;;;;;5035748;28;20102;-74
2023/11/18 13:01:58;;;;;;;15.65;9.23;;;0.00;99.90;;;;;;5036963;28;20027;-74
2023/11/18 13:04:27;;;;;;;12.95;9.48;;;-0.10;99.90;;;;;;4970821;28;20035;-77
2023/11/18 13:06:54;;;;;;;12.65;8.15;;;0.00;99.90;;;;;;4970259;28;20030;-74